Wellington, Colorado
Current Conditions -  °F | °C
As of 12:35 PM on Tuesday 21 Oct 2014 (Local Time) from KFNL Reporting Station
Clear Clear  
Wind Chill: 73°   Ceiling: Unl
Heat Index: 73°   Visibility: 6mi
Dew Point: 43°   Wind: 9mph
Humidity: 33%   Direction: 130°SE
Pressure: 29.98"   Gusts: NA
Location:  40.7°N, 105.01°W
Report Text: KFNL 211835Z AUTO 13008KT 6SM CLR 23/06 A2998 RMK AO1
Loading
Personal Weather Stations






























Interactive Weather Map
Tropical Storm Tracking
New forecast layout! Learn more

10-Day Weather Forecast

Advertisements
Track Severe Weather on mobile